Time;durP1;ratioP1;P1;durP2;ratioP2;P2;SDS_P1;SDS_P2;PMS_P1;PMS_P2;Temp;Humidity;BMP_temperature;BMP_pressure;BME280_temperature;BME280_humidity;BME280_pressure;Samples;Min_cycle;Max_cycle;Signal;HPM_P1;HPM_P2
2022/03/31 00:00:19;;;;;;;39.08;18.17;;;;;;;10.08;59.70;98275.28;4968857;28;20133;-84
2022/03/31 00:02:46;;;;;;;38.35;17.05;;;;;;;10.07;59.26;98283.41;5000882;28;20050;-85
2022/03/31 00:05:15;;;;;;;37.13;17.17;;;;;;;10.09;59.35;98266.31;4998466;28;22204;-84
2022/03/31 00:07:50;;;;;;;35.08;17.30;;;;;;;10.03;59.25;98271.50;5032213;28;20075;-84
2022/03/31 00:10:31;;;;;;;37.50;16.48;;;;;;;9.88;59.64;98264.25;4991351;28;20524;-84
2022/03/31 00:12:59;;;;;;;35.95;16.55;;;;;;;9.98;59.15;98272.00;4985329;28;20052;-84
2022/03/31 00:15:27;;;;;;;39.95;18.42;;;;;;;9.89;58.62;98279.16;4983833;28;20049;-84
2022/03/31 00:17:55;;;;;;;37.70;17.38;;;;;;;9.70;59.11;98268.94;4989607;28;20049;-85
2022/03/31 00:20:22;;;;;;;35.80;16.73;;;;;;;9.60;59.14;98266.47;4997173;28;20033;-84
2022/03/31 00:22:49;;;;;;;39.05;17.40;;;;;;;9.54;59.02;98267.09;4997790;28;20046;-84
2022/03/31 00:25:15;;;;;;;38.35;18.30;;;;;;;9.37;59.20;98252.25;5002635;28;20056;-85
2022/03/31 00:27:42;;;;;;;42.88;18.52;;;;;;;9.29;59.61;98258.38;5001939;28;20041;-85
2022/03/31 00:30:11;;;;;;;37.45;17.17;;;;;;;9.22;59.81;98252.09;5008768;28;20041;-85
2022/03/31 00:32:38;;;;;;;36.90;17.52;;;;;;;9.27;60.02;98249.78;5003544;28;20053;-84
2022/03/31 00:35:06;;;;;;;41.83;18.20;;;;;;;9.26;60.02;98245.44;5005371;28;20044;-84
2022/03/31 00:37:33;;;;;;;36.63;17.00;;;;;;;9.32;59.76;98244.78;5002668;28;20049;-84
2022/03/31 00:39:59;;;;;;;37.53;16.55;;;;;;;9.30;59.99;98238.84;5013733;28;20037;-84
2022/03/31 00:42:26;;;;;;;37.55;17.17;;;;;;;9.42;59.96;98236.69;4992724;28;20045;-84
2022/03/31 00:44:53;;;;;;;36.20;17.00;;;;;;;9.40;59.78;98243.97;5006438;28;20490;-84
2022/03/31 00:47:20;;;;;;;39.22;17.67;;;;;;;9.48;59.65;98242.13;5024249;28;20132;-83
2022/03/31 00:49:47;;;;;;;33.88;16.38;;;;;;;9.51;59.62;98239.13;5001914;28;20050;-84
2022/03/31 00:52:13;;;;;;;38.42;18.58;;;;;;;9.57;59.91;98233.16;5001642;28;20053;-84
2022/03/31 00:55:35;;;;;;;35.63;16.48;;;;;;;9.49;59.95;98229.69;4991229;28;20048;-84
2022/03/31 00:58:02;;;;;;;37.70;17.17;;;;;;;9.62;59.73;98232.66;4967773;28;20048;-84
2022/03/31 01:00:29;;;;;;;40.15;17.15;;;;;;;9.53;59.75;98228.38;4988595;28;20063;-85
2022/03/31 01:02:56;;;;;;;40.88;17.95;;;;;;;9.60;59.33;98229.34;5009930;28;20041;-85
2022/03/31 01:05:23;;;;;;;42.80;18.83;;;;;;;9.53;59.26;98231.03;5007087;28;20079;-83
2022/03/31 01:07:49;;;;;;;39.78;17.75;;;;;;;9.45;59.17;98221.25;5009499;28;20048;-84
2022/03/31 01:10:16;;;;;;;42.95;17.90;;;;;;;9.24;58.95;98219.16;5008148;28;20447;-84
2022/03/31 01:12:43;;;;;;;39.80;18.17;;;;;;;9.26;59.35;98216.31;4992738;28;20045;-84
2022/03/31 01:15:20;;;;;;;40.38;17.80;;;;;;;8.95;59.93;98221.47;5006893;28;20041;-84
2022/03/31 01:17:48;;;;;;;40.22;16.98;;;;;;;9.06;59.52;98210.56;4989823;28;20122;-84
2022/03/31 01:20:17;;;;;;;39.05;16.95;;;;;;;9.08;59.45;98211.19;4973436;28;20053;-84
2022/03/31 01:22:45;;;;;;;40.65;17.23;;;;;;;8.90;59.60;98212.22;5003655;28;20187;-85
2022/03/31 01:25:13;;;;;;;38.28;17.45;;;;;;;9.00;59.58;98206.72;4990290;28;20041;-84
2022/03/31 01:27:41;;;;;;;36.97;15.73;;;;;;;9.00;59.92;98204.06;5021408;28;20463;-84
2022/03/31 01:30:11;;;;;;;39.13;16.27;;;;;;;8.86;59.94;98202.13;5020556;28;20103;-84
2022/03/31 01:32:37;;;;;;;41.72;17.05;;;;;;;8.78;60.20;98205.59;4987137;28;20041;-84
2022/03/31 01:35:06;;;;;;;40.88;17.95;;;;;;;8.63;60.24;98194.00;4969022;28;20042;-84
2022/03/31 01:37:33;;;;;;;44.72;17.20;;;;;;;8.61;60.73;98201.25;5008087;28;20080;-84
2022/03/31 01:40:01;;;;;;;41.88;16.27;;;;;;;8.53;61.07;98194.13;5008592;28;20473;-84
2022/03/31 01:42:28;;;;;;;40.10;17.35;;;;;;;8.62;61.14;98187.84;4999129;28;20079;-83
2022/03/31 01:44:56;;;;;;;40.15;16.95;;;;;;;8.63;61.17;98188.69;5008274;28;20050;-85
2022/03/31 01:47:23;;;;;;;43.38;17.25;;;;;;;8.47;61.20;98194.75;4989276;28;20079;-84
2022/03/31 01:49:51;;;;;;;47.10;18.13;;;;;;;8.32;61.88;98186.63;5016551;28;20045;-83
2022/03/31 01:52:19;;;;;;;43.25;17.67;;;;;;;8.13;62.11;98192.19;4981752;28;20084;-85
2022/03/31 01:54:45;;;;;;;51.00;19.13;;;;;;;7.96;62.98;98194.78;5009635;28;20037;-84
2022/03/31 01:57:13;;;;;;;45.58;17.83;;;;;;;8.16;62.05;98187.38;5009852;28;20041;-84
2022/03/31 01:59:41;;;;;;;41.92;16.40;;;;;;;8.27;61.87;98178.34;4969153;28;20049;-84
2022/03/31 02:02:09;;;;;;;44.58;18.50;;;;;;;8.24;62.30;98181.28;4988216;28;20539;-84
2022/03/31 02:04:36;;;;;;;45.15;17.40;;;;;;;8.20;62.20;98177.34;5004225;28;20132;-84
2022/03/31 02:07:03;;;;;;;43.20;17.90;;;;;;;8.32;61.90;98173.41;4972616;28;20465;-84
2022/03/31 02:09:30;;;;;;;56.92;19.88;;;;;;;8.31;62.24;98178.84;5019507;28;22302;-84
2022/03/31 02:11:57;;;;;;;43.78;18.48;;;;;;;8.16;62.33;98176.00;4995292;28;20042;-84
2022/03/31 02:14:25;;;;;;;50.50;19.42;;;;;;;8.22;61.96;98181.47;5023107;28;20064;-84
2022/03/31 02:16:52;;;;;;;49.67;18.45;;;;;;;8.02;62.60;98167.69;5016208;28;20233;-83
2022/03/31 02:19:19;;;;;;;44.67;17.15;;;;;;;8.11;61.96;98176.47;4986073;28;20049;-85
2022/03/31 02:21:46;;;;;;;43.40;17.58;;;;;;;8.21;62.16;98171.06;5005927;28;20131;-84
2022/03/31 02:24:14;;;;;;;44.72;18.02;;;;;;;7.92;62.86;98168.81;4985267;28;20481;-84
2022/03/31 02:26:41;;;;;;;45.83;17.73;;;;;;;7.96;62.71;98156.94;4990819;28;20095;-85
2022/03/31 02:29:09;;;;;;;42.25;17.77;;;;;;;8.22;62.51;98164.78;4967384;28;20046;-84
2022/03/31 02:31:36;;;;;;;42.45;17.33;;;;;;;8.02;62.94;98158.94;5016868;28;20053;-84
2022/03/31 02:34:04;;;;;;;46.63;18.20;;;;;;;7.97;63.28;98158.59;4989493;28;20048;-85
2022/03/31 02:37:24;;;;;;;43.55;17.95;;;;;;;8.05;62.63;98158.63;4985466;28;20064;-85
2022/03/31 02:39:51;;;;;;;40.30;16.30;;;;;;;8.22;62.31;98148.94;4927410;28;20068;-85
2022/03/31 02:42:18;;;;;;;42.33;17.08;;;;;;;8.35;62.23;98154.56;5005901;28;20045;-85
2022/03/31 02:44:45;;;;;;;39.70;17.23;;;;;;;8.23;62.40;98143.47;4975007;28;20053;-84
2022/03/31 02:47:12;;;;;;;43.75;17.90;;;;;;;8.36;62.19;98150.09;4977008;28;20531;-84
2022/03/31 02:49:39;;;;;;;45.30;16.60;;;;;;;8.20;62.51;98150.91;4989119;28;20037;-84
2022/03/31 02:52:07;;;;;;;44.58;17.17;;;;;;;8.01;62.48;98142.28;4999365;28;20379;-84
2022/03/31 02:57:20;;;;;;;42.08;16.70;;;;;;;7.92;63.13;98134.47;4959322;28;20489;-84
2022/03/31 02:59:46;;;;;;;45.13;17.60;;;;;;;7.99;62.54;98130.19;4999502;28;20056;-82
2022/03/31 03:02:13;;;;;;;41.88;17.17;;;;;;;7.94;62.49;98129.84;4977598;28;20044;-85
2022/03/31 03:04:40;;;;;;;45.28;17.25;;;;;;;7.86;63.06;98135.94;5017631;28;20515;-84
2022/03/31 03:07:07;;;;;;;38.58;16.55;;;;;;;7.88;62.71;98128.66;5007191;28;20129;-85
2022/03/31 03:09:33;;;;;;;44.85;17.25;;;;;;;7.81;62.93;98127.63;5018518;28;20203;-85
2022/03/31 03:12:00;;;;;;;40.22;14.82;;;;;;;8.03;62.42;98129.69;5014323;28;20397;-85
2022/03/31 03:14:32;;;;;;;37.55;16.02;;;;;;;8.00;62.22;98113.34;5021288;28;20037;-86
2022/03/31 03:17:04;;;;;;;38.38;15.55;;;;;;;7.99;62.66;98109.88;4950424;28;20037;-84
2022/03/31 03:19:31;;;;;;;34.80;15.55;;;;;;;8.09;62.48;98114.19;4937692;28;20590;-84
2022/03/31 03:22:00;;;;;;;44.05;17.23;;;;;;;7.97;62.81;98105.75;5016654;28;20525;-85
2022/03/31 03:24:26;;;;;;;37.55;15.32;;;;;;;7.83;63.54;98105.34;5020313;28;20504;-84
2022/03/31 03:26:53;;;;;;;43.00;17.45;;;;;;;8.00;62.81;98103.59;5016030;28;20067;-85
2022/03/31 03:29:20;;;;;;;38.10;16.23;;;;;;;7.95;62.61;98103.25;5007224;28;20048;-84
2022/03/31 03:31:47;;;;;;;37.33;15.90;;;;;;;7.95;62.77;98105.06;5004326;28;20075;-84
2022/03/31 03:34:17;;;;;;;37.92;15.27;;;;;;;7.89;62.54;98098.63;5000911;28;20133;-84
2022/03/31 03:36:43;;;;;;;40.45;15.57;;;;;;;8.08;62.23;98107.25;5001848;28;20044;-84
2022/03/31 03:39:11;;;;;;;40.80;15.82;;;;;;;7.89;62.54;98095.97;5006806;28;20493;-84
2022/03/31 03:41:38;;;;;;;41.45;16.92;;;;;;;7.75;62.48;98100.06;4987301;28;20120;-85
2022/03/31 03:44:05;;;;;;;36.10;15.13;;;;;;;7.86;62.20;98091.03;4988007;28;20043;-85
2022/03/31 03:46:32;;;;;;;36.45;15.43;;;;;;;7.94;62.45;98085.75;4989917;28;20056;-84
2022/03/31 03:49:01;;;;;;;34.80;13.85;;;;;;;8.02;62.31;98085.75;5013755;28;20109;-84
2022/03/31 03:51:27;;;;;;;36.42;15.43;;;;;;;7.92;62.39;98086.91;4990507;28;20064;-84
2022/03/31 03:53:58;;;;;;;38.60;15.60;;;;;;;8.01;61.80;98088.56;5014033;28;20050;-83
2022/03/31 03:56:54;;;;;;;37.75;15.90;;;;;;;7.85;62.06;98096.47;5007500;28;20049;-83
2022/03/31 03:59:20;;;;;;;40.00;16.38;;;;;;;7.91;61.92;98087.88;4967357;28;20051;-85
2022/03/31 04:01:47;;;;;;;40.20;15.90;;;;;;;7.76;62.29;98083.22;5004532;28;20079;-84
2022/03/31 04:04:14;;;;;;;41.78;15.90;;;;;;;7.78;62.36;98078.59;4985932;28;20046;-84
2022/03/31 04:06:41;;;;;;;37.97;15.65;;;;;;;7.62;63.16;98083.84;5017188;28;20489;-83
2022/03/31 04:09:08;;;;;;;42.15;16.02;;;;;;;7.74;62.70;98087.03;5006598;28;20045;-82
2022/03/31 04:11:35;;;;;;;38.83;15.00;;;;;;;7.60;63.21;98083.97;5016899;28;20095;-84
2022/03/31 04:14:03;;;;;;;38.38;15.60;;;;;;;7.76;62.61;98080.59;4970778;28;20041;-83
2022/03/31 04:16:29;;;;;;;40.28;15.77;;;;;;;7.78;62.74;98078.59;4987697;28;20049;-84
2022/03/31 04:18:56;;;;;;;38.25;15.48;;;;;;;7.64;63.02;98075.75;4988880;28;20045;-83
2022/03/31 04:21:24;;;;;;;42.45;16.30;;;;;;;7.74;62.73;98073.81;4970834;28;20123;-83
2022/03/31 04:23:51;;;;;;;42.80;15.23;;;;;;;7.51;63.23;98077.03;4969644;28;20040;-83
2022/03/31 04:26:48;;;;;;;36.22;14.63;;;;;;;7.64;63.04;98076.59;5018880;28;20045;-84
2022/03/31 04:29:14;;;;;;;35.65;15.32;;;;;;;7.75;62.86;98071.00;4935795;28;20045;-84
2022/03/31 04:31:43;;;;;;;44.53;17.38;;;;;;;7.60;63.38;98070.78;4988132;28;20065;-84
2022/03/31 04:34:13;;;;;;;41.78;16.67;;;;;;;7.71;62.75;98066.19;4966796;28;20048;-83
2022/03/31 04:36:40;;;;;;;34.47;16.60;;;;;;;7.75;62.66;98067.53;5002790;28;20091;-86
2022/03/31 04:39:07;;;;;;;38.63;15.35;;;;;;;7.64;62.98;98065.19;5014238;28;20669;-87
2022/03/31 04:41:33;;;;;;;43.92;15.77;;;;;;;7.63;62.99;98074.09;4999580;28;20445;-86
2022/03/31 04:44:01;;;;;;;38.92;14.65;;;;;;;7.70;62.85;98068.00;5024042;28;20042;-86
2022/03/31 04:46:28;;;;;;;38.42;15.82;;;;;;;7.71;62.75;98063.53;4977344;28;20092;-86
2022/03/31 04:48:55;;;;;;;41.35;16.52;;;;;;;7.71;63.18;98068.81;4967328;28;20076;-87
2022/03/31 04:51:21;;;;;;;37.15;13.73;;;;;;;7.66;63.21;98071.97;4971644;28;20678;-87
2022/03/31 04:53:48;;;;;;;43.30;16.10;;;;;;;7.76;62.87;98069.16;4984426;28;20370;-86
2022/03/31 04:56:16;;;;;;;38.80;14.35;;;;;;;7.85;63.04;98067.38;4986589;28;20723;-86
2022/03/31 04:58:43;;;;;;;40.80;15.98;;;;;;;7.92;62.88;98060.47;4981242;28;20054;-87
2022/03/31 05:01:11;;;;;;;38.80;16.20;;;;;;;7.96;63.03;98065.28;5017047;28;20044;-86
2022/03/31 05:03:39;;;;;;;43.28;16.05;;;;;;;8.07;62.71;98060.66;4981544;28;20045;-86
2022/03/31 05:06:06;;;;;;;35.00;14.05;;;;;;;8.13;62.87;98062.66;4984091;28;20041;-86
2022/03/31 05:08:33;;;;;;;40.95;14.77;;;;;;;8.15;62.42;98061.50;4957268;28;20042;-87
2022/03/31 05:11:00;;;;;;;42.38;16.13;;;;;;;8.15;62.74;98065.97;4983486;28;20506;-86
2022/03/31 05:13:27;;;;;;;40.00;17.65;;;;;;;8.07;62.45;98060.66;4969434;28;20137;-86
2022/03/31 05:15:54;;;;;;;37.47;16.15;;;;;;;8.02;62.28;98053.22;4997625;28;20044;-86
2022/03/31 05:18:20;;;;;;;40.03;16.30;;;;;;;8.06;62.46;98057.16;4995475;28;20530;-87
2022/03/31 05:20:47;;;;;;;43.10;16.52;;;;;;;8.08;62.69;98060.47;4974192;28;20125;-86
2022/03/31 05:23:14;;;;;;;39.80;16.08;;;;;;;8.14;62.69;98056.34;4968768;28;20050;-87
2022/03/31 05:25:41;;;;;;;43.00;17.00;;;;;;;8.04;62.45;98052.06;4979588;28;20078;-86
2022/03/31 05:28:09;;;;;;;42.80;16.58;;;;;;;8.08;62.38;98051.72;4966242;28;20635;-86
2022/03/31 05:30:36;;;;;;;41.45;15.82;;;;;;;8.14;62.05;98044.00;4981558;28;20053;-86
2022/03/31 05:33:04;;;;;;;37.63;15.60;;;;;;;8.20;62.29;98050.44;4996693;28;20049;-87
2022/03/31 05:35:30;;;;;;;45.90;18.33;;;;;;;8.25;62.15;98045.47;4996070;28;20069;-88
2022/03/31 05:37:58;;;;;;;37.65;15.23;;;;;;;8.26;62.18;98045.28;5001831;28;20133;-88
2022/03/31 05:40:25;;;;;;;47.75;16.42;;;;;;;8.29;62.01;98041.50;4985022;28;20046;-89
2022/03/31 05:42:52;;;;;;;42.53;15.60;;;;;;;8.26;62.20;98047.13;4997623;28;20045;-89
2022/03/31 05:45:18;;;;;;;40.65;15.25;;;;;;;8.25;62.23;98050.75;4931827;28;1172050;-89
2022/03/31 05:47:45;;;;;;;42.00;17.08;;;;;;;8.19;61.91;98043.47;4999632;28;20494;-88
2022/03/31 05:50:13;;;;;;;43.97;17.45;;;;;;;8.20;61.85;98045.97;4988614;28;20065;-89
2022/03/31 05:52:42;;;;;;;42.17;16.13;;;;;;;8.24;61.87;98041.16;4986401;28;20050;-87
2022/03/31 05:55:11;;;;;;;39.97;16.17;;;;;;;8.27;62.28;98041.66;4972588;28;20045;-89
2022/03/31 05:57:38;;;;;;;39.97;16.10;;;;;;;8.16;62.05;98041.16;4989846;28;20053;-89
2022/03/31 06:00:07;;;;;;;38.00;16.08;;;;;;;8.09;61.99;98042.81;4998678;28;20045;-88
2022/03/31 06:02:37;;;;;;;41.15;16.35;;;;;;;8.02;62.10;98042.66;4989358;28;20052;-89
2022/03/31 06:05:21;;;;;;;41.65;16.95;;;;;;;7.97;62.42;98042.31;4931073;28;20997;-86
2022/03/31 06:07:49;;;;;;;44.10;18.17;;;;;;;7.80;63.57;98044.09;4967177;28;20560;-88
2022/03/31 06:10:15;;;;;;;46.65;17.40;;;;;;;7.87;62.96;98047.75;4970192;28;20063;-89
2022/03/31 06:12:42;;;;;;;47.50;19.33;;;;;;;7.76;63.14;98048.03;4987631;28;20053;-85
2022/03/31 06:15:09;;;;;;;42.65;17.63;;;;;;;7.75;63.09;98049.03;4985662;28;20034;-89
2022/03/31 06:17:40;;;;;;;48.65;17.65;;;;;;;7.85;62.67;98049.72;4977501;28;20128;-89
2022/03/31 06:20:08;;;;;;;48.15;17.88;;;;;;;7.87;62.55;98058.31;4983573;28;20049;-89
2022/03/31 06:22:35;;;;;;;48.90;18.10;;;;;;;7.88;62.10;98045.91;4980230;28;20385;-88
2022/03/31 06:25:02;;;;;;;46.35;16.95;;;;;;;7.78;62.76;98052.16;4973498;28;20045;-89
2022/03/31 06:27:29;;;;;;;43.88;17.50;;;;;;;7.76;62.93;98046.25;4986525;28;20524;-89
2022/03/31 06:29:56;;;;;;;46.20;17.88;;;;;;;7.77;62.98;98045.25;5001768;28;20059;-89
2022/03/31 06:32:23;;;;;;;46.30;18.77;;;;;;;7.78;63.03;98040.78;4979560;28;20050;-89
2022/03/31 06:34:50;;;;;;;41.80;17.05;;;;;;;7.88;62.47;98038.00;4969787;28;20096;-89
2022/03/31 06:37:17;;;;;;;48.28;18.63;;;;;;;7.71;62.98;98031.84;4984446;28;20120;-89
2022/03/31 06:39:44;;;;;;;47.00;17.77;;;;;;;7.74;62.68;98027.06;4988098;28;20050;-89
2022/03/31 06:42:10;;;;;;;47.88;17.27;;;;;;;7.69;63.34;98034.66;4965306;28;20049;-89
2022/03/31 06:44:37;;;;;;;47.03;18.85;;;;;;;7.75;63.13;98025.25;5000280;28;20068;-88
2022/03/31 06:47:05;;;;;;;49.65;19.88;;;;;;;7.85;62.87;98020.66;4987463;28;20037;-88
2022/03/31 06:49:34;;;;;;;48.72;19.13;;;;;;;7.68;63.23;98029.53;5002891;28;20056;-89
2022/03/31 06:52:01;;;;;;;40.83;17.52;;;;;;;7.76;62.74;98026.91;5003120;28;20056;-88
2022/03/31 06:54:30;;;;;;;46.78;18.88;;;;;;;7.81;62.91;98029.88;5014317;28;20465;-89
2022/03/31 06:56:57;;;;;;;45.40;17.27;;;;;;;7.82;63.23;98026.25;5009632;28;20052;-90
2022/03/31 06:59:24;;;;;;;49.53;17.45;;;;;;;7.83;63.10;98025.25;4997586;28;20050;-89
2022/03/31 07:01:50;;;;;;;50.80;18.85;;;;;;;7.85;62.87;98028.56;5003138;28;20068;-89
2022/03/31 07:04:17;;;;;;;42.65;17.42;;;;;;;7.83;62.94;98028.72;5044516;28;20046;-89
2022/03/31 07:06:45;;;;;;;39.63;16.40;;;;;;;7.84;62.82;98026.94;5002726;28;20042;-87
2022/03/31 07:09:12;;;;;;;48.60;18.15;;;;;;;7.88;62.98;98030.06;4982242;28;20042;-85
2022/03/31 07:11:39;;;;;;;46.00;18.17;;;;;;;7.88;63.61;98036.16;5016407;28;20041;-86
2022/03/31 07:14:06;;;;;;;45.50;17.80;;;;;;;7.98;62.98;98028.09;4987267;28;20051;-87
2022/03/31 07:16:33;;;;;;;46.97;16.67;;;;;;;8.07;63.04;98039.53;4985104;28;20463;-86
2022/03/31 07:19:01;;;;;;;47.38;16.85;;;;;;;8.13;62.80;98034.38;4997864;28;20079;-87
2022/03/31 07:21:32;;;;;;;44.38;17.55;;;;;;;8.13;63.12;98031.75;4984942;28;20046;-86
2022/03/31 07:24:01;;;;;;;45.10;18.27;;;;;;;8.18;62.97;98034.72;4994159;28;20045;-86
2022/03/31 07:26:29;;;;;;;47.20;17.75;;;;;;;8.18;62.73;98033.91;5002029;28;20722;-87
2022/03/31 07:28:56;;;;;;;44.95;17.13;;;;;;;8.19;62.77;98033.75;4983883;28;20046;-89
2022/03/31 07:31:24;;;;;;;42.55;16.85;;;;;;;8.23;62.46;98029.75;4987748;28;20057;-87
2022/03/31 07:33:52;;;;;;;45.92;17.13;;;;;;;8.28;62.79;98026.63;4983207;28;20054;-89
2022/03/31 07:36:19;;;;;;;42.63;16.38;;;;;;;8.23;63.03;98027.13;4982271;28;20576;-89
2022/03/31 07:38:46;;;;;;;40.40;16.80;;;;;;;8.15;62.90;98023.66;5002841;28;20149;-89
2022/03/31 07:41:16;;;;;;;42.42;16.73;;;;;;;8.18;62.41;98023.31;4981596;28;20520;-89
2022/03/31 07:43:43;;;;;;;41.33;16.10;;;;;;;8.13;62.37;98020.34;5015481;28;20041;-88
2022/03/31 07:46:12;;;;;;;42.95;16.02;;;;;;;8.18;62.96;98024.13;4997829;28;20041;-89
2022/03/31 07:48:39;;;;;;;42.35;15.68;;;;;;;8.22;62.92;98022.00;4993775;28;20041;-89
2022/03/31 07:51:05;;;;;;;46.90;15.95;;;;;;;8.18;63.16;98028.59;5010575;28;20413;-89
2022/03/31 07:53:35;;;;;;;42.88;16.15;;;;;;;8.22;62.65;98014.91;4995471;28;20052;-89
2022/03/31 07:56:05;;;;;;;43.47;14.90;;;;;;;8.24;62.83;98005.00;5001617;28;20050;-89
2022/03/31 07:58:32;;;;;;;43.20;16.17;;;;;;;8.35;62.75;98009.09;5012848;28;20050;-89
2022/03/31 08:00:59;;;;;;;43.17;16.63;;;;;;;8.20;63.49;98008.13;5000701;28;20409;-89
2022/03/31 08:03:26;;;;;;;41.83;16.45;;;;;;;8.30;62.62;98002.69;5011333;28;20125;-89
2022/03/31 08:05:53;;;;;;;43.78;16.10;;;;;;;8.20;62.66;98008.94;4998844;28;20045;-89
2022/03/31 08:08:20;;;;;;;46.35;17.55;;;;;;;8.26;62.94;98002.97;5013631;28;20048;-88
2022/03/31 08:10:48;;;;;;;46.50;18.63;;;;;;;8.30;62.65;98002.69;5015690;28;20610;-89
2022/03/31 08:13:25;;;;;;;50.38;19.25;;;;;;;8.12;63.24;98008.13;4991927;28;20053;-88
2022/03/31 08:15:53;;;;;;;42.30;15.82;;;;;;;8.11;62.98;98004.63;5001873;28;20100;-88
2022/03/31 08:18:24;;;;;;;40.53;16.50;;;;;;;8.17;63.30;98003.19;5005452;28;20044;-88
2022/03/31 08:20:53;;;;;;;45.00;17.40;;;;;;;8.21;63.11;98013.22;4989340;28;20041;-88
2022/03/31 08:23:20;;;;;;;45.50;17.17;;;;;;;8.23;63.36;97999.84;5018693;28;21695;-89
2022/03/31 08:25:47;;;;;;;44.08;17.02;;;;;;;8.21;63.23;98004.47;5017267;28;20042;-89
2022/03/31 08:28:14;;;;;;;43.03;16.65;;;;;;;8.21;62.95;98005.28;5004316;28;20038;-89
2022/03/31 08:30:41;;;;;;;45.00;17.50;;;;;;;8.27;62.60;97999.38;4970523;28;20136;-88
2022/03/31 08:33:09;;;;;;;37.40;14.93;;;;;;;8.23;63.07;98003.31;4991641;28;20505;-89
2022/03/31 08:35:41;;;;;;;43.85;15.52;;;;;;;8.08;63.77;97998.88;4972540;28;20050;-88
2022/03/31 08:38:08;;;;;;;43.20;17.35;;;;;;;8.12;63.87;98001.03;5014827;28;20049;-90
2022/03/31 08:40:36;;;;;;;48.92;17.85;;;;;;;8.18;63.53;98002.16;4975025;28;20513;-88
2022/03/31 08:43:03;;;;;;;45.13;17.80;;;;;;;8.20;63.52;97998.38;5005017;28;20139;-89
2022/03/31 08:45:34;;;;;;;45.97;17.52;;;;;;;8.21;63.37;97999.19;4979957;28;20063;-89
2022/03/31 08:48:03;;;;;;;53.42;19.92;;;;;;;8.27;63.52;97991.44;5016261;28;20061;-89
2022/03/31 08:50:33;;;;;;;44.33;18.85;;;;;;;8.33;63.93;97995.22;5006196;28;20079;-89
2022/03/31 08:53:01;;;;;;;43.97;18.02;;;;;;;8.31;63.75;97989.25;4997259;28;20400;-89
2022/03/31 08:55:28;;;;;;;50.67;17.75;;;;;;;8.32;63.73;97984.78;4990249;28;20045;-89
2022/03/31 08:57:55;;;;;;;46.40;17.98;;;;;;;8.37;63.54;97982.47;5022229;28;20408;-88
2022/03/31 09:00:23;;;;;;;43.65;16.00;;;;;;;8.44;63.87;97984.31;4977664;28;20507;-89
2022/03/31 09:02:53;;;;;;;44.75;17.70;;;;;;;8.50;63.96;97982.84;5015500;28;20044;-89
2022/03/31 09:05:20;;;;;;;52.03;20.35;;;;;;;8.53;63.66;97973.75;5007642;28;20095;-89
2022/03/31 09:07:57;;;;;;;47.65;18.83;;;;;;;8.51;63.67;97978.38;5018049;28;20048;-89
2022/03/31 09:10:40;;;;;;;50.90;19.35;;;;;;;8.37;63.73;97974.53;4998433;28;20134;-89
2022/03/31 09:13:28;;;;;;;54.40;21.10;;;;;;;8.33;64.23;97975.88;4939879;28;20049;-88
2022/03/31 09:15:57;;;;;;;50.00;18.80;;;;;;;8.41;63.87;97979.38;4973730;28;20045;-89
2022/03/31 09:18:26;;;;;;;51.83;20.05;;;;;;;8.45;63.97;97970.13;5038276;28;20041;-89
2022/03/31 09:20:56;;;;;;;54.10;22.02;;;;;;;8.39;64.43;97985.78;5013902;28;20092;-89
2022/03/31 09:23:31;;;;;;;57.20;20.30;;;;;;;8.41;64.24;97987.31;5019335;28;20378;-89
2022/03/31 09:26:08;;;;;;;53.78;19.65;;;;;;;8.41;64.74;97981.19;4992092;28;20053;-90
2022/03/31 09:28:36;;;;;;;60.42;21.70;;;;;;;8.42;64.55;97986.31;5013640;28;20493;-89
2022/03/31 09:31:05;;;;;;;62.15;22.00;;;;;;;8.42;64.42;97988.13;4990706;28;20052;-89
2022/03/31 09:33:34;;;;;;;63.60;21.98;;;;;;;8.45;63.88;97979.88;5003187;28;20132;-89
2022/03/31 09:36:04;;;;;;;71.00;24.75;;;;;;;8.40;64.08;97982.19;5006131;28;20237;-85
2022/03/31 09:38:35;;;;;;;70.20;25.23;;;;;;;8.40;64.24;97975.09;4992195;28;20057;-85
2022/03/31 09:41:16;;;;;;;65.25;22.83;;;;;;;8.41;64.27;97965.31;4991171;28;20046;-86
2022/03/31 09:43:43;;;;;;;72.07;24.65;;;;;;;8.40;65.03;97972.44;4973377;28;20053;-86
2022/03/31 09:46:21;;;;;;;73.80;27.25;;;;;;;8.23;66.35;97966.31;4970576;28;20037;-87
2022/03/31 09:48:50;;;;;;;68.97;25.67;;;;;;;8.36;65.75;97960.50;4957576;28;20052;-87
2022/03/31 09:51:20;;;;;;;68.47;25.63;;;;;;;8.39;65.41;97965.47;4997494;28;20049;-87
2022/03/31 09:53:48;;;;;;;71.40;25.52;;;;;;;8.36;66.01;97967.63;5006293;28;20089;-87
2022/03/31 09:56:17;;;;;;;73.28;24.80;;;;;;;8.31;66.59;97968.13;5022283;28;20052;-86
2022/03/31 09:58:46;;;;;;;77.20;25.48;;;;;;;8.36;66.11;97962.31;4989750;28;20577;-86
2022/03/31 10:01:17;;;;;;;79.05;25.38;;;;;;;8.30;66.26;97968.28;4973993;28;20496;-87
2022/03/31 10:03:44;;;;;;;81.72;27.63;;;;;;;8.38;65.73;97969.09;4988706;28;20045;-88
2022/03/31 10:06:12;;;;;;;79.50;25.17;;;;;;;8.27;65.53;97966.81;5010074;28;20596;-90
2022/03/31 10:08:44;;;;;;;82.63;26.73;;;;;;;8.30;66.19;97969.13;4985096;28;20128;-89
2022/03/31 10:11:17;;;;;;;79.40;26.77;;;;;;;8.34;65.91;97969.59;5004440;28;22477;-89
2022/03/31 10:14:09;;;;;;;75.32;24.52;;;;;;;8.12;66.74;97960.53;5009619;28;21649;-89
2022/03/31 10:16:50;;;;;;;79.47;27.13;;;;;;;8.18;66.06;97957.22;4937722;28;20472;-89
2022/03/31 10:19:27;;;;;;;70.05;23.45;;;;;;;8.19;66.22;97954.44;4989770;28;20480;-89
2022/03/31 10:21:59;;;;;;;86.38;26.63;;;;;;;8.17;66.31;97961.69;5004885;28;20037;-89
2022/03/31 10:24:41;;;;;;;75.43;25.63;;;;;;;8.31;65.82;97948.78;4963936;28;20073;-89
2022/03/31 10:27:13;;;;;;;80.25;25.67;;;;;;;8.30;65.89;97945.31;4952514;28;20465;-88
2022/03/31 10:29:42;;;;;;;87.75;27.65;;;;;;;8.37;66.24;97950.75;4958167;28;20100;-89
2022/03/31 10:32:21;;;;;;;79.93;26.35;;;;;;;8.27;65.58;97951.78;4973798;28;20049;-89
2022/03/31 10:34:54;;;;;;;82.40;26.50;;;;;;;8.14;66.77;97946.16;4935598;28;20145;-86
2022/03/31 10:37:32;;;;;;;83.32;27.02;;;;;;;8.08;66.99;97943.34;4968106;28;20046;-89
2022/03/31 10:40:00;;;;;;;84.15;26.23;;;;;;;8.17;66.84;97947.66;4953135;28;20050;-88
2022/03/31 10:42:26;;;;;;;72.18;23.67;;;;;;;8.10;66.91;97944.03;4977411;28;20046;-89
2022/03/31 10:45:09;;;;;;;79.97;23.98;;;;;;;8.15;67.33;97936.41;4928146;28;20138;-89
2022/03/31 10:47:36;;;;;;;70.88;23.13;;;;;;;8.29;66.37;97937.53;4962868;28;20050;-89
2022/03/31 10:50:04;;;;;;;72.20;24.15;;;;;;;8.32;66.34;97938.06;4941534;28;20047;-89
2022/03/31 10:52:32;;;;;;;77.63;24.58;;;;;;;8.32;66.08;97943.34;4941995;28;20055;-86
2022/03/31 10:55:11;;;;;;;70.13;24.13;;;;;;;8.18;66.38;97936.88;4986932;28;20640;-89
2022/03/31 10:57:43;;;;;;;68.75;22.38;;;;;;;8.29;66.09;97933.06;4951837;28;20498;-89
2022/03/31 11:00:14;;;;;;;79.57;24.42;;;;;;;8.32;66.04;97929.25;5027224;28;20037;-89
2022/03/31 11:02:46;;;;;;;72.20;24.30;;;;;;;8.38;65.46;97929.44;5000103;28;20397;-89
2022/03/31 11:05:38;;;;;;;81.05;23.95;;;;;;;8.32;66.03;97922.19;4936911;28;20046;-87
2022/03/31 11:08:07;;;;;;;71.03;22.98;;;;;;;8.32;66.79;97922.19;4957919;28;20068;-89
2022/03/31 11:10:42;;;;;;;78.63;25.63;;;;;;;8.33;66.32;97923.00;4967098;28;20053;-88
2022/03/31 11:13:09;;;;;;;74.40;24.33;;;;;;;8.43;66.47;97921.03;4966267;28;20064;-88
2022/03/31 11:15:37;;;;;;;71.63;24.90;;;;;;;8.42;66.43;97912.28;5001906;28;20050;-90
2022/03/31 11:18:04;;;;;;;70.72;25.60;;;;;;;8.53;66.15;97916.38;4983171;28;20061;-89
2022/03/31 11:20:30;;;;;;;66.20;23.02;;;;;;;8.52;65.88;97906.75;4999071;28;20056;-89
2022/03/31 11:23:03;;;;;;;74.10;24.35;;;;;;;8.43;66.04;97905.16;4985152;28;20064;-83
2022/03/31 11:25:31;;;;;;;73.93;24.90;;;;;;;8.53;65.98;97911.09;4996414;28;20141;-83
2022/03/31 11:28:06;;;;;;;75.78;27.45;;;;;;;8.44;66.15;97907.63;4995722;28;20120;-80
2022/03/31 11:30:33;;;;;;;86.00;26.25;;;;;;;8.53;65.82;97905.78;4970331;28;20126;-80
2022/03/31 11:33:01;;;;;;;74.63;23.85;;;;;;;8.58;65.86;97905.28;4986490;28;20095;-80
2022/03/31 11:35:28;;;;;;;81.32;25.80;;;;;;;8.57;66.52;97898.31;4950196;28;20042;-80